Elmadag, Turkey
Current Conditions -  °F | °C
As of 8:20 PM on Thursday 18 Dec 2014 (Local Time) from LTAC Reporting Station
Haze Haze  
Wind Chill: 37°   Ceiling: 9000
Heat Index: 37°   Visibility: 2.8mi
Dew Point: 37°   Wind: 1mph
Humidity: 100%   Direction: NA
Pressure: 30.06"   Gusts: NA
Location:  39.93°N, 33.25°E
Report Text: LTAC 181720Z VRB01KT 4500 BR SCT011 SCT030 BKN090 03/03 Q1018 NOSIG
Loading
Personal Weather Stations






























Interactive Weather Map New forecast layout! Learn more

10-Day Weather Forecast

Advertisements
Track Severe Weather on mobile